Time;durP1;ratioP1;P1;durP2;ratioP2;P2;SDS_P1;SDS_P2;PMS_P1;PMS_P2;Temp;Humidity;BMP_temperature;BMP_pressure;BME280_temperature;BME280_humidity;BME280_pressure;Samples;Min_cycle;Max_cycle;Signal;HPM_P1;HPM_P2
2023/08/28 00:01:03;;;;;;;14.98;7.78;;;;;;;14.97;100.00;98960.56;5019555;28;20485;-39
2023/08/28 00:03:30;;;;;;;12.95;8.30;;;;;;;15.15;100.00;98989.97;5027719;28;20041;-39
2023/08/28 00:05:57;;;;;;;15.15;7.95;;;;;;;15.14;100.00;98990.91;5019451;28;20060;-40
2023/08/28 00:08:23;;;;;;;13.63;8.40;;;;;;;15.14;100.00;98990.91;5012640;28;20104;-40
2023/08/28 00:10:53;;;;;;;12.18;8.20;;;;;;;15.00;100.00;98972.63;5025556;28;20049;-41
2023/08/28 00:13:19;;;;;;;18.55;8.48;;;;;;;15.09;100.00;98983.34;5026924;28;20575;-40
2023/08/28 00:15:45;;;;;;;17.23;8.82;;;;;;;15.08;100.00;98980.81;5005995;28;20045;-39
2023/08/28 00:18:11;;;;;;;19.40;8.82;;;;;;;15.07;100.00;98972.13;5015954;28;20053;-41
2023/08/28 00:20:37;;;;;;;13.35;8.88;;;;;;;15.03;100.00;98964.56;5032119;28;20099;-41
2023/08/28 00:23:02;;;;;;;15.05;8.30;;;;;;;15.04;100.00;98968.88;5016985;28;20037;-40
2023/08/28 00:25:28;;;;;;;13.68;8.50;;;;;;;15.02;100.00;98971.56;5023526;28;20048;-40
2023/08/28 00:27:54;;;;;;;15.43;8.25;;;;;;;14.90;100.00;98945.34;5017604;28;20088;-40
2023/08/28 00:30:20;;;;;;;14.15;8.52;;;;;;;15.03;100.00;98977.66;5008819;28;20052;-40
2023/08/28 00:32:47;;;;;;;14.23;8.25;;;;;;;15.01;100.00;98976.94;5024300;28;20132;-39
2023/08/28 00:35:13;;;;;;;11.85;8.48;;;;;;;14.98;100.00;98972.72;5018359;28;20475;-38
2023/08/28 00:37:41;;;;;;;14.43;8.40;;;;;;;14.97;100.00;98978.06;5027288;28;20041;-39
2023/08/28 00:40:07;;;;;;;14.60;8.23;;;;;;;14.95;100.00;98969.47;5028414;28;20037;-40
2023/08/28 00:42:33;;;;;;;13.88;8.98;;;;;;;14.94;100.00;98979.09;5028166;28;20033;-39
2023/08/28 00:44:59;;;;;;;15.60;8.98;;;;;;;14.86;100.00;98965.66;5007596;28;20038;-40
2023/08/28 00:47:26;;;;;;;18.30;9.20;;;;;;;14.89;100.00;98977.69;5024936;28;20041;-40
2023/08/28 00:49:52;;;;;;;16.40;8.48;;;;;;;14.85;100.00;98977.06;5022511;28;20052;-40
2023/08/28 00:52:18;;;;;;;14.02;8.63;;;;;;;14.84;100.00;98980.59;5036466;28;20191;-40
2023/08/28 00:54:44;;;;;;;12.93;8.23;;;;;;;14.81;100.00;98981.63;5018206;28;20041;-40
2023/08/28 00:57:12;;;;;;;15.73;9.27;;;;;;;14.80;100.00;98985.19;5030987;28;20045;-40
2023/08/28 00:59:38;;;;;;;16.48;9.45;;;;;;;14.78;100.00;98981.00;5009994;28;20037;-40
2023/08/28 01:02:04;;;;;;;16.38;9.50;;;;;;;14.73;100.00;98973.44;5005219;28;20041;-40
2023/08/28 01:04:31;;;;;;;15.18;9.80;;;;;;;14.75;100.00;98983.81;5026568;28;20057;-41
2023/08/28 01:07:16;;;;;;;18.10;11.25;;;;;;;14.73;100.00;98977.81;5027561;28;20076;-40
2023/08/28 01:09:59;;;;;;;20.30;9.70;;;;;;;14.56;100.00;98967.56;5030958;28;20040;-40
2023/08/28 01:12:28;;;;;;;15.38;10.65;;;;;;;14.67;100.00;99001.75;5024264;28;20037;-40
2023/08/28 01:15:15;;;;;;;20.75;10.88;;;;;;;14.39;100.00;98955.53;5030457;28;20038;-40
2023/08/28 01:17:42;;;;;;;15.68;10.40;;;;;;;14.63;100.00;98987.19;5053625;28;20064;-40
2023/08/28 01:20:13;;;;;;;16.15;10.23;;;;;;;14.43;100.00;98964.03;4995279;28;20919;-40
2023/08/28 01:22:44;;;;;;;17.75;10.02;;;;;;;14.41;100.00;98966.72;5012792;28;20049;-40
2023/08/28 01:25:12;;;;;;;15.43;9.73;;;;;;;14.52;100.00;98987.84;4996434;28;20132;-41
2023/08/28 01:27:39;;;;;;;15.10;10.52;;;;;;;14.55;100.00;98994.66;5030538;28;20099;-39
2023/08/28 01:30:13;;;;;;;18.75;9.32;;;;;;;14.53;100.00;98992.13;5028192;28;20055;-39
2023/08/28 01:32:41;;;;;;;17.55;9.90;;;;;;;14.59;100.00;99004.00;5027268;28;20056;-40
2023/08/28 01:35:20;;;;;;;15.65;9.48;;;;;;;14.66;100.00;99007.91;4994921;28;20083;-39
2023/08/28 01:37:49;;;;;;;17.08;10.27;;;;;;;14.73;100.00;99004.00;5012531;28;20041;-40
2023/08/28 01:40:15;;;;;;;;;;;;;;;14.80;100.00;99002.69;5024305;28;20045;-40
2023/08/28 01:42:41;;;;;;;16.52;10.27;;;;;;;14.81;100.00;98997.31;5011500;28;19923;-41
2023/08/28 01:45:08;;;;;;;15.50;11.00;;;;;;;14.86;100.00;99006.69;5026904;28;20127;-40
2023/08/28 01:47:34;;;;;;;15.45;9.82;;;;;;;14.87;100.00;99008.34;5027159;28;20510;-41
2023/08/28 01:50:00;;;;;;;15.10;9.75;;;;;;;14.84;100.00;99012.00;5005301;28;20133;-41
2023/08/28 01:52:29;;;;;;;15.23;10.00;;;;;;;14.78;100.00;99012.38;5012554;28;20053;-40
2023/08/28 01:54:55;;;;;;;14.07;9.48;;;;;;;14.74;100.00;99010.91;5027925;28;20041;-40
2023/08/28 01:57:22;;;;;;;19.55;10.65;;;;;;;14.66;100.00;99011.38;5027750;28;20099;-40
2023/08/28 01:59:49;;;;;;;17.58;10.43;;;;;;;14.64;100.00;99012.41;5012080;28;20083;-40
2023/08/28 02:02:15;;;;;;;21.20;10.65;;;;;;;14.55;100.00;99005.94;5007565;28;20468;-40
2023/08/28 02:04:41;;;;;;;18.13;9.77;;;;;;;14.54;100.00;99014.75;5007910;28;20535;-41
2023/08/28 02:07:07;;;;;;;14.45;9.77;;;;;;;14.50;100.00;99008.00;5027488;28;20049;-41
2023/08/28 02:09:33;;;;;;;16.63;10.35;;;;;;;14.27;100.00;98978.00;5023256;28;20058;-40
2023/08/28 02:11:59;;;;;;;20.20;10.65;;;;;;;14.44;100.00;99018.03;5026872;28;20469;-41
2023/08/28 02:14:25;;;;;;;16.88;9.82;;;;;;;14.42;100.00;99020.72;5011835;28;20091;-38
2023/08/28 02:17:11;;;;;;;16.17;10.07;;;;;;;14.38;100.00;99024.47;5025500;28;20081;-39
2023/08/28 02:19:37;;;;;;;16.98;10.27;;;;;;;14.38;100.00;99025.31;5024138;28;20080;-40
2023/08/28 02:22:03;;;;;;;17.83;10.00;;;;;;;14.36;100.00;99029.78;5027996;28;20799;-40
2023/08/28 02:24:29;;;;;;;15.90;9.43;;;;;;;14.34;100.00;99028.97;5028061;28;20590;-40
2023/08/28 02:26:55;;;;;;;16.40;9.50;;;;;;;14.35;100.00;99038.50;4987994;28;20563;-41
2023/08/28 02:29:21;;;;;;;19.02;10.68;;;;;;;14.31;100.00;99041.41;5026604;28;20516;-40
2023/08/28 02:31:47;;;;;;;17.30;9.60;;;;;;;14.30;100.00;99043.19;5029059;28;20048;-40
2023/08/28 02:34:13;;;;;;;16.17;10.00;;;;;;;14.09;100.00;99018.31;5027342;28;20045;-39
2023/08/28 02:36:40;;;;;;;17.10;10.88;;;;;;;14.25;100.00;99044.38;5027765;28;20061;-40
2023/08/28 02:39:06;;;;;;;22.50;11.30;;;;;;;14.11;100.00;99024.31;5027223;28;20118;-41
2023/08/28 02:41:32;;;;;;;15.45;10.63;;;;;;;14.25;100.00;99060.91;5029244;28;20041;-40
2023/08/28 02:43:57;;;;;;;15.18;10.65;;;;;;;13.88;100.00;98983.81;5027470;28;20053;-41
2023/08/28 02:46:23;;;;;;;16.65;10.23;;;;;;;14.21;100.00;99048.97;5028997;28;20034;-40
2023/08/28 02:48:49;;;;;;;16.75;10.77;;;;;;;14.22;100.00;99048.03;5021497;28;20049;-40
2023/08/28 02:51:15;;;;;;;16.98;10.07;;;;;;;14.25;100.00;99052.22;5027177;28;20037;-39
2023/08/28 02:53:41;;;;;;;15.55;10.10;;;;;;;14.08;100.00;99029.69;5027150;28;20050;-39
2023/08/28 02:56:25;;;;;;;26.48;10.95;;;;;;;14.23;100.00;99052.34;5026879;28;20050;-40
2023/08/28 02:58:54;;;;;;;15.63;10.43;;;;;;;14.11;100.00;99039.13;5024319;28;20091;-40
2023/08/28 03:01:21;;;;;;;16.98;10.73;;;;;;;14.30;100.00;99068.47;5025412;28;20056;-42
2023/08/28 03:03:47;;;;;;;16.45;10.40;;;;;;;14.31;100.00;99064.94;5026021;28;20132;-40
2023/08/28 03:06:13;;;;;;;16.25;9.73;;;;;;;14.32;100.00;99059.63;5011383;28;20529;-39
2023/08/28 03:08:39;;;;;;;16.13;9.82;;;;;;;14.04;100.00;99015.13;5026217;28;20041;-40
2023/08/28 03:11:05;;;;;;;18.45;9.52;;;;;;;14.38;100.00;99061.91;5010339;28;20202;-41
2023/08/28 03:13:31;;;;;;;12.65;9.18;;;;;;;14.44;100.00;99070.31;5027926;28;20458;-41
2023/08/28 03:15:57;;;;;;;15.75;9.68;;;;;;;14.16;100.00;99018.78;5028055;28;20041;-42
2023/08/28 03:18:23;;;;;;;15.35;9.30;;;;;;;14.50;100.00;99072.59;5015301;28;20137;-40
2023/08/28 03:20:49;;;;;;;15.20;9.70;;;;;;;14.54;99.94;99074.91;5009314;28;20045;-39
2023/08/28 03:23:15;;;;;;;20.98;9.45;;;;;;;14.60;99.97;99081.56;5039211;28;20095;-40
2023/08/28 03:25:41;;;;;;;13.30;8.55;;;;;;;14.48;99.87;99048.28;5024773;28;20140;-41
2023/08/28 03:28:07;;;;;;;16.52;8.60;;;;;;;14.70;99.86;99078.28;5024888;28;20403;-39
2023/08/28 03:30:34;;;;;;;12.40;8.32;;;;;;;14.77;99.71;99079.59;5031087;28;20044;-39
2023/08/28 03:33:00;;;;;;;11.27;8.50;;;;;;;14.82;99.20;99092.38;5041663;28;20149;-39
2023/08/28 03:35:26;;;;;;;14.73;8.13;;;;;;;14.86;98.86;99079.97;5010896;28;20139;-40
2023/08/28 03:37:52;;;;;;;12.02;8.50;;;;;;;14.90;98.84;99078.84;5023686;28;20049;-40
2023/08/28 03:40:18;;;;;;;17.38;9.02;;;;;;;14.95;98.64;99076.78;5008273;28;20136;-40
2023/08/28 03:42:44;;;;;;;15.90;8.75;;;;;;;15.01;98.31;99094.72;5009704;28;20112;-41
2023/08/28 03:45:10;;;;;;;16.50;8.23;;;;;;;15.06;98.33;99079.56;5009028;28;20052;-41
2023/08/28 03:47:36;;;;;;;12.45;7.95;;;;;;;15.11;97.87;99086.22;5010212;28;20073;-40
2023/08/28 03:50:03;;;;;;;12.77;8.52;;;;;;;15.19;97.68;99086.56;5008562;28;20087;-40
2023/08/28 03:52:30;;;;;;;14.18;8.40;;;;;;;15.25;97.57;99078.31;5010112;28;20070;-40
2023/08/28 03:54:56;;;;;;;12.43;8.43;;;;;;;15.30;97.11;99085.03;5026449;28;20069;-39
2023/08/28 03:57:23;;;;;;;14.40;8.38;;;;;;;15.36;96.62;99085.50;5026708;28;20045;-40
2023/08/28 03:59:49;;;;;;;15.07;8.95;;;;;;;15.42;96.57;99081.66;5006923;28;20045;-39
2023/08/28 04:02:15;;;;;;;14.27;7.88;;;;;;;15.51;95.92;99079.31;5021649;28;20041;-40
2023/08/28 04:04:42;;;;;;;12.98;8.38;;;;;;;15.57;95.23;99075.47;5024763;28;20516;-41
2023/08/28 04:07:07;;;;;;;12.55;8.30;;;;;;;15.53;94.64;99063.50;5024087;28;20045;-40
2023/08/28 04:09:33;;;;;;;15.10;9.45;;;;;;;15.71;93.99;99082.41;5027082;28;20476;-41
2023/08/28 04:12:00;;;;;;;18.33;9.25;;;;;;;15.75;93.73;99076.06;5008138;28;20513;-40
2023/08/28 04:14:26;;;;;;;19.15;9.85;;;;;;;15.82;92.82;99072.94;5026041;28;20135;-40
2023/08/28 04:16:53;;;;;;;19.23;11.82;;;;;;;15.91;92.26;99080.19;5025454;28;20580;-40
2023/08/28 04:19:19;;;;;;;16.73;11.50;;;;;;;15.98;91.55;99076.22;5028267;28;20041;-39
2023/08/28 04:21:45;;;;;;;16.25;10.57;;;;;;;16.08;90.47;99077.28;5025625;28;20395;-41
2023/08/28 04:24:11;;;;;;;21.35;9.10;;;;;;;16.17;89.73;99068.00;5029879;28;20050;-40
2023/08/28 04:26:36;;;;;;;16.15;9.23;;;;;;;16.24;88.84;99065.78;5030049;28;20504;-39
2023/08/28 04:29:02;;;;;;;18.17;9.20;;;;;;;16.33;87.81;99065.19;5028859;28;20046;-40
2023/08/28 04:31:28;;;;;;;13.77;9.20;;;;;;;16.37;87.22;99062.25;5013842;28;20689;-40
2023/08/28 04:33:54;;;;;;;17.52;8.65;;;;;;;16.44;86.59;99060.00;5029688;28;20525;-40
2023/08/28 04:36:20;;;;;;;17.02;9.40;;;;;;;16.48;85.81;99058.88;5029981;28;20095;-40
2023/08/28 04:38:49;;;;;;;19.23;8.20;;;;;;;16.57;85.27;99062.66;5030036;28;20075;-41
2023/08/28 04:41:15;;;;;;;16.77;8.45;;;;;;;16.33;84.40;99013.53;5028876;28;20048;-40
2023/08/28 04:43:41;;;;;;;17.38;9.20;;;;;;;16.52;83.74;99032.31;5024332;28;20041;-40
2023/08/28 04:46:06;;;;;;;14.00;8.23;;;;;;;16.83;82.81;99059.94;5029727;28;20041;-41
2023/08/28 04:48:32;;;;;;;17.95;7.57;;;;;;;16.93;81.84;99068.84;5029788;28;20468;-41
2023/08/28 04:50:58;;;;;;;22.65;8.00;;;;;;;17.07;80.71;99067.88;5018206;28;20042;-40
2023/08/28 04:53:25;;;;;;;22.75;7.93;;;;;;;17.19;79.43;99064.38;5025013;28;20057;-41
2023/08/28 04:55:50;;;;;;;23.83;8.25;;;;;;;17.28;78.79;99063.72;5029710;28;20384;-40
2023/08/28 04:58:16;;;;;;;20.02;7.55;;;;;;;17.44;77.74;99068.72;5029738;28;20148;-41
2023/08/28 05:00:42;;;;;;;27.65;9.98;;;;;;;17.50;76.86;99056.91;5022875;28;20130;-40
2023/08/28 05:03:08;;;;;;;31.83;8.70;;;;;;;17.67;75.89;99061.81;5007225;28;20045;-40
2023/08/28 05:05:35;;;;;;;32.72;9.32;;;;;;;17.78;75.15;99061.88;5021411;28;20049;-40
2023/08/28 05:08:01;;;;;;;27.73;9.23;;;;;;;17.82;74.65;99065.13;5037677;28;20049;-41
2023/08/28 05:10:27;;;;;;;26.02;8.70;;;;;;;17.85;73.78;99059.66;5030763;28;20037;-41
2023/08/28 05:12:53;;;;;;;25.80;7.85;;;;;;;17.89;73.15;99067.19;5029246;28;20041;-42
2023/08/28 05:15:19;;;;;;;26.45;10.40;;;;;;;17.92;72.50;99061.69;5029478;28;20048;-42
2023/08/28 05:17:48;;;;;;;26.25;8.02;;;;;;;17.97;71.78;99070.06;5027881;28;20045;-40
2023/08/28 05:20:14;;;;;;;25.42;6.40;;;;;;;18.04;71.29;99060.78;5018955;28;20144;-39
2023/08/28 05:22:40;;;;;;;27.23;7.03;;;;;;;18.13;70.94;99060.09;5028160;28;20046;-44
2023/08/28 05:25:06;;;;;;;25.27;6.05;;;;;;;18.16;70.22;99066.94;5028228;28;20037;-41
2023/08/28 05:27:32;;;;;;;16.30;5.10;;;;;;;18.30;69.33;99082.50;5026783;28;20049;-41
2023/08/28 05:29:59;;;;;;;10.07;4.63;;;;;;;18.37;68.47;99072.38;5051563;28;20042;-40
2023/08/28 05:32:25;;;;;;;15.10;5.10;;;;;;;18.44;66.60;99069.13;5027828;28;20037;-42
2023/08/28 05:34:50;;;;;;;10.18;5.18;;;;;;;18.52;65.53;99071.19;5028246;28;20380;-40
2023/08/28 05:37:16;;;;;;;7.07;3.20;;;;;;;18.33;64.42;99023.53;5028959;28;20172;-40
2023/08/28 05:39:43;;;;;;;8.73;3.03;;;;;;;18.69;63.87;99070.75;5012475;28;20040;-41
2023/08/28 05:42:09;;;;;;;7.93;2.80;;;;;;;18.79;62.94;99070.91;5027847;28;20505;-41
2023/08/28 05:44:35;;;;;;;6.40;2.53;;;;;;;18.84;62.77;99064.28;5012691;28;20421;-39
2023/08/28 05:47:01;;;;;;;5.95;2.70;;;;;;;18.91;62.08;99065.50;5012097;28;20045;-40
2023/08/28 05:49:27;;;;;;;4.32;2.72;;;;;;;18.97;61.38;99067.66;5028636;28;20044;-41
2023/08/28 05:51:53;;;;;;;4.13;2.70;;;;;;;19.05;60.42;99065.22;5021866;28;20045;-41
2023/08/28 05:54:19;;;;;;;3.33;2.40;;;;;;;18.99;60.04;99035.94;5029014;28;20420;-41
2023/08/28 05:56:45;;;;;;;5.80;2.30;;;;;;;19.14;59.53;99033.88;5028610;28;20045;-40
2023/08/28 05:59:11;;;;;;;6.53;2.53;;;;;;;19.44;58.82;99057.75;5028341;28;20038;-41
2023/08/28 06:01:36;;;;;;;3.47;2.22;;;;;;;19.63;58.59;99055.31;5023414;28;20091;-41
2023/08/28 06:04:02;;;;;;;8.25;2.75;;;;;;;19.83;58.22;99057.19;5028183;28;20129;-40
2023/08/28 06:06:29;;;;;;;7.60;3.70;;;;;;;19.93;57.47;99030.03;5007573;28;20128;-41
2023/08/28 06:08:55;;;;;;;13.73;5.13;;;;;;;20.33;56.66;99046.03;5026104;28;20085;-41
2023/08/28 06:11:21;;;;;;;9.30;2.90;;;;;;;21.13;55.37;99060.19;5038705;28;20136;-40
2023/08/28 06:13:46;;;;;;;7.82;2.42;;;;;;;22.02;52.90;99047.84;5030590;28;20057;-40
2023/08/28 06:16:12;;;;;;;5.28;2.60;;;;;;;23.00;50.84;99058.91;5030406;28;20069;-40
2023/08/28 06:18:38;;;;;;;5.30;2.65;;;;;;;23.87;48.86;99056.56;5036055;28;20123;-42
2023/08/28 06:21:04;;;;;;;4.45;2.63;;;;;;;24.87;47.07;99055.19;5010701;28;20039;-41
2023/08/28 06:23:30;;;;;;;3.20;2.35;;;;;;;25.78;44.82;99057.19;5027847;28;20057;-42
2023/08/28 06:25:57;;;;;;;5.00;2.58;;;;;;;26.67;42.78;99059.84;5005901;28;20127;-42
2023/08/28 06:28:23;;;;;;;4.70;2.15;;;;;;;27.48;41.84;99060.38;5008829;28;20204;-42
2023/08/28 06:30:50;;;;;;;3.58;2.33;;;;;;;28.26;40.22;99054.06;5002249;28;20622;-40
2023/08/28 06:33:16;;;;;;;3.25;2.50;;;;;;;29.14;38.40;99062.19;5026621;28;20049;-43
2023/08/28 06:35:41;;;;;;;5.65;2.70;;;;;;;29.89;36.67;99060.84;5010272;28;20033;-43
2023/08/28 06:38:07;;;;;;;4.47;2.60;;;;;;;30.60;35.11;99067.06;4992690;28;20091;-42
2023/08/28 06:40:33;;;;;;;7.28;2.95;;;;;;;31.33;33.46;99062.13;5027091;28;20076;-40
2023/08/28 06:42:59;;;;;;;3.38;3.08;;;;;;;32.08;32.25;99072.69;5020445;28;20052;-45
2023/08/28 06:45:25;;;;;;;4.55;2.65;;;;;;;32.57;31.09;99050.75;5025051;28;20044;-42
2023/08/28 06:47:51;;;;;;;4.78;2.70;;;;;;;33.22;30.07;99072.41;5022881;28;20042;-41
2023/08/28 06:50:17;;;;;;;4.15;2.65;;;;;;;33.66;28.96;99074.25;5023018;28;20056;-43
2023/08/28 06:52:43;;;;;;;8.07;2.90;;;;;;;34.38;28.03;99071.97;5023346;28;20115;-40
2023/08/28 06:55:09;;;;;;;4.50;3.15;;;;;;;35.10;27.45;99067.75;5027343;28;20049;-42
2023/08/28 06:57:35;;;;;;;6.85;3.25;;;;;;;35.59;26.13;99074.03;5027869;28;20057;-42
2023/08/28 07:00:02;;;;;;;5.68;2.88;;;;;;;36.02;25.51;99080.09;5010406;28;20080;-41
2023/08/28 07:02:32;;;;;;;5.63;3.03;;;;;;;36.46;24.56;99081.50;5018519;28;20544;-40
2023/08/28 07:04:58;;;;;;;4.68;2.88;;;;;;;36.95;24.12;99084.00;5025675;28;20085;-42
2023/08/28 07:07:24;;;;;;;3.35;2.60;;;;;;;37.47;23.76;99080.25;5026981;28;20045;-40
2023/08/28 07:09:50;;;;;;;5.30;2.65;;;;;;;38.00;22.97;99079.91;5028533;28;20428;-42
2023/08/28 07:12:15;;;;;;;3.20;2.90;;;;;;;38.51;21.89;99078.94;5027177;28;20156;-43
2023/08/28 07:14:41;;;;;;;5.93;3.38;;;;;;;38.95;21.49;99082.56;5022717;28;20049;-40
2023/08/28 07:17:07;;;;;;;7.45;5.70;;;;;;;39.46;20.77;99083.25;5020892;28;20144;-42
2023/08/28 07:19:33;;;;;;;6.63;3.15;;;;;;;39.76;19.96;99080.91;5014123;28;20075;-40
2023/08/28 07:22:00;;;;;;;3.13;2.83;;;;;;;40.26;19.67;99076.19;5019485;28;20064;-43
2023/08/28 07:24:27;;;;;;;8.07;2.80;;;;;;;40.26;19.53;99081.63;5021718;28;20061;-46
2023/08/28 07:26:53;;;;;;;3.25;3.00;;;;;;;40.04;19.37;99071.63;5027955;28;20080;-43
2023/08/28 07:29:19;;;;;;;4.88;4.35;;;;;;;40.37;18.90;99073.28;5005769;28;20037;-46
2023/08/28 07:31:45;;;;;;;6.40;3.08;;;;;;;41.06;18.53;99070.50;5018446;28;20045;-43
2023/08/28 07:34:11;;;;;;;8.32;2.97;;;;;;;41.37;18.71;99072.28;5026481;28;20512;-46
2023/08/28 07:36:40;;;;;;;4.05;3.35;;;;;;;41.52;18.32;99065.25;5022175;28;20034;-44
2023/08/28 07:39:06;;;;;;;4.68;2.97;;;;;;;42.03;17.58;99071.66;5050121;28;20052;-42
2023/08/28 07:41:32;;;;;;;3.65;2.92;;;;;;;42.54;17.15;99067.84;4994245;28;20041;-45
2023/08/28 07:43:58;;;;;;;4.05;3.00;;;;;;;42.71;17.12;99067.56;5026509;28;20048;-42
2023/08/28 07:46:25;;;;;;;8.50;2.97;;;;;;;42.97;17.15;99069.09;5026515;28;20136;-42
2023/08/28 07:48:51;;;;;;;3.53;2.92;;;;;;;43.48;16.67;99066.22;5017826;28;20089;-43
2023/08/28 07:51:17;;;;;;;3.53;3.22;;;;;;;43.44;16.30;99068.69;5006064;28;20057;-42
2023/08/28 07:53:43;;;;;;;6.07;3.58;;;;;;;42.43;17.12;99029.84;5023917;28;20509;-45
2023/08/28 07:56:10;;;;;;;4.45;2.63;;;;;;;40.62;18.23;99061.78;5027609;28;20041;-42
2023/08/28 07:58:36;;;;;;;5.97;2.28;;;;;;;38.78;19.42;99062.75;5026010;28;20528;-41
2023/08/28 08:01:02;;;;;;;2.33;2.13;;;;;;;38.29;19.28;99058.97;5033135;28;20065;-44
2023/08/28 08:03:28;;;;;;;3.53;2.00;;;;;;;36.50;20.34;99050.16;5027659;28;20041;-42
2023/08/28 08:05:55;;;;;;;4.93;2.55;;;;;;;36.28;20.79;99054.50;5026009;28;20060;-46
2023/08/28 08:08:21;;;;;;;3.53;2.33;;;;;;;35.00;22.31;99055.81;5026050;28;20041;-41
2023/08/28 08:10:47;;;;;;;5.22;3.88;;;;;;;33.66;23.82;99050.00;5027697;28;20079;-44
2023/08/28 08:13:13;;;;;;;7.88;4.60;;;;;;;32.55;25.73;99052.00;5009732;28;20037;-41
2023/08/28 08:15:38;;;;;;;4.40;3.30;;;;;;;33.33;24.58;99064.50;5006551;28;20057;-42
2023/08/28 08:18:05;;;;;;;4.55;2.67;;;;;;;33.54;23.58;99039.94;5049600;28;20631;-43
2023/08/28 08:20:31;;;;;;;3.72;2.60;;;;;;;32.68;25.09;99057.41;5026091;28;20819;-44
2023/08/28 08:22:57;;;;;;;6.18;3.05;;;;;;;33.83;24.29;99061.97;5023481;28;20505;-42
2023/08/28 08:25:23;;;;;;;6.10;4.38;;;;;;;36.19;22.27;99061.31;5026100;28;20049;-42
2023/08/28 08:27:49;;;;;;;3.13;2.83;;;;;;;38.16;20.94;99070.16;5026205;28;20136;-41
2023/08/28 08:30:15;;;;;;;3.25;3.00;;;;;;;39.78;19.48;99065.13;5023271;28;20073;-43
2023/08/28 08:32:43;;;;;;;3.80;2.65;;;;;;;40.11;19.11;99069.50;5026075;28;20067;-45
2023/08/28 08:35:09;;;;;;;;;;;;;;;39.29;19.52;99064.25;5026460;28;20464;-43
2023/08/28 08:37:35;;;;;;;2.42;2.22;;;;;;;37.41;21.43;99056.81;5025244;28;19960;-44
2023/08/28 08:40:02;;;;;;;5.22;3.47;;;;;;;35.14;23.47;99036.50;5009869;28;20049;-42
2023/08/28 08:42:31;;;;;;;8.05;3.38;;;;;;;34.02;24.41;99058.34;5026223;28;20033;-42
2023/08/28 08:44:56;;;;;;;6.28;3.22;;;;;;;35.07;23.63;99061.97;5027443;28;20042;-42
2023/08/28 08:47:23;;;;;;;4.97;2.60;;;;;;;33.79;23.59;99015.75;5026144;28;20752;-43
2023/08/28 08:49:53;;;;;;;3.63;2.92;;;;;;;32.56;25.17;99045.56;5008266;28;20046;-43
2023/08/28 08:52:20;;;;;;;6.93;3.80;;;;;;;31.54;26.36;99048.53;4998088;28;20140;-43
2023/08/28 08:54:47;;;;;;;13.77;11.57;;;;;;;31.43;26.95;99052.66;5002341;28;20054;-40
2023/08/28 08:57:18;;;;;;;4.32;3.20;;;;;;;30.89;27.00;99012.28;5009079;28;20068;-42
2023/08/28 08:59:44;;;;;;;3.63;3.22;;;;;;;30.19;28.06;99021.31;5024082;28;20052;-42
2023/08/28 09:02:12;;;;;;;5.10;3.17;;;;;;;29.77;29.01;99032.03;5012865;28;20051;-43
2023/08/28 09:04:40;;;;;;;9.35;4.15;;;;;;;30.46;27.96;99035.72;5030408;28;20521;-41
2023/08/28 09:07:05;;;;;;;;;;;;;;;33.50;24.77;99030.59;5029494;28;20071;-43
2023/08/28 09:09:32;;;;;;;3.30;2.80;;;;;;;36.16;21.95;99025.78;5024621;28;19924;-43
2023/08/28 09:11:59;;;;;;;6.68;4.97;;;;;;;37.87;20.63;99025.09;5030785;28;20034;-44
2023/08/28 09:14:26;;;;;;;3.83;2.90;;;;;;;38.88;19.72;99027.53;5012961;28;20099;-43
2023/08/28 09:16:52;;;;;;;5.70;2.80;;;;;;;37.58;20.58;99024.31;4996741;28;20033;-44
2023/08/28 09:19:18;;;;;;;2.78;2.58;;;;;;;35.75;21.28;98981.41;5000907;28;20076;-43
2023/08/28 09:21:47;;;;;;;4.00;2.70;;;;;;;34.42;22.99;98988.66;5029135;28;20044;-43
2023/08/28 09:24:13;;;;;;;3.22;2.90;;;;;;;33.46;24.37;99013.22;5011115;28;20037;-43
2023/08/28 09:26:50;;;;;;;4.32;3.17;;;;;;;32.23;25.47;99006.09;5012723;28;20049;-44
2023/08/28 09:29:20;;;;;;;4.22;3.30;;;;;;;31.31;27.01;99008.56;5010782;28;20124;-42
2023/08/28 09:31:47;;;;;;;4.97;3.35;;;;;;;30.64;28.10;99028.06;4992512;28;20045;-43
2023/08/28 09:34:13;;;;;;;4.43;3.40;;;;;;;30.19;29.09;99010.59;5028722;28;20061;-43
2023/08/28 09:36:40;;;;;;;4.35;3.15;;;;;;;29.76;29.21;98985.66;5029041;28;20037;-41
2023/08/28 09:39:06;;;;;;;6.07;2.80;;;;;;;29.61;29.56;99003.66;5028010;28;20045;-41
2023/08/28 09:41:38;;;;;;;5.13;2.97;;;;;;;29.55;30.38;99008.94;5030389;28;20063;-43
2023/08/28 09:44:04;;;;;;;4.10;3.08;;;;;;;30.18;30.00;99016.97;5028463;28;20041;-42
2023/08/28 09:46:31;;;;;;;4.30;2.95;;;;;;;30.47;29.62;98991.00;5012573;28;20079;-43
2023/08/28 09:48:57;;;;;;;4.55;3.10;;;;;;;30.60;29.72;99023.28;5028277;28;20522;-44
2023/08/28 09:51:40;;;;;;;3.92;2.80;;;;;;;30.56;28.63;99020.19;5028624;28;20037;-42
2023/08/28 09:54:07;;;;;;;4.40;3.28;;;;;;;31.73;27.56;99009.31;5021457;28;20061;-43
2023/08/28 09:56:33;;;;;;;3.55;2.95;;;;;;;35.24;24.88;99036.00;5029687;28;20033;-42
2023/08/28 09:59:01;;;;;;;4.78;3.30;;;;;;;36.56;23.11;99032.16;5029834;28;20496;-42
2023/08/28 10:01:31;;;;;;;3.13;2.65;;;;;;;35.32;22.74;99029.47;5020645;28;20103;-44
2023/08/28 10:03:59;;;;;;;4.05;3.40;;;;;;;33.55;24.72;99030.78;5027707;28;20061;-42
2023/08/28 10:06:25;;;;;;;4.70;3.40;;;;;;;32.24;26.29;99026.56;5028305;28;20052;-44
2023/08/28 10:08:58;;;;;;;3.78;3.08;;;;;;;31.10;27.59;99028.34;5023455;28;20065;-43
2023/08/28 10:11:29;;;;;;;10.40;3.25;;;;;;;30.34;28.92;99039.16;5011435;28;20132;-43
2023/08/28 10:13:56;;;;;;;4.22;3.00;;;;;;;29.77;29.48;99032.03;5018761;28;20044;-42
2023/08/28 10:16:25;;;;;;;5.78;2.80;;;;;;;29.39;30.08;99039.47;5028166;28;20556;-41
2023/08/28 10:18:59;;;;;;;6.03;3.15;;;;;;;29.01;30.93;99034.22;5047059;28;20061;-41
2023/08/28 10:21:27;;;;;;;5.15;3.20;;;;;;;28.90;31.96;99028.50;5011454;28;20045;-42
2023/08/28 10:23:53;;;;;;;6.57;4.43;;;;;;;30.73;29.62;98994.66;5025151;28;20046;-43
2023/08/28 10:26:20;;;;;;;7.45;4.05;;;;;;;34.18;25.98;99025.38;5021477;28;20056;-44
2023/08/28 10:28:47;;;;;;;5.05;3.17;;;;;;;36.43;23.03;99011.53;5027569;28;20079;-43
2023/08/28 10:31:13;;;;;;;4.22;3.20;;;;;;;38.22;21.40;99025.72;5021740;28;20072;-44
2023/08/28 10:33:40;;;;;;;6.40;5.80;;;;;;;39.45;20.03;99012.75;5028829;28;20057;-43
2023/08/28 10:36:11;;;;;;;8.48;3.70;;;;;;;40.33;19.22;99005.97;5010803;28;20068;-40
2023/08/28 10:38:37;;;;;;;4.20;2.80;;;;;;;38.90;20.21;99011.00;5037557;28;20038;-44
2023/08/28 10:41:03;;;;;;;3.40;2.97;;;;;;;37.39;21.34;99020.13;5015656;28;20129;-44
2023/08/28 10:43:30;;;;;;;4.05;3.00;;;;;;;35.46;22.82;99007.44;5027276;28;20520;-45
2023/08/28 10:46:00;;;;;;;4.88;3.40;;;;;;;33.99;24.38;99010.19;5027150;28;20060;-43
2023/08/28 10:48:26;;;;;;;4.63;3.08;;;;;;;32.89;25.38;99007.84;5027494;28;20049;-44
2023/08/28 10:50:56;;;;;;;5.57;3.45;;;;;;;32.06;26.26;99014.75;5009998;28;20087;-43
2023/08/28 10:53:22;;;;;;;5.20;2.92;;;;;;;32.42;26.23;99015.16;5036467;28;20052;-43
2023/08/28 10:55:56;;;;;;;6.28;3.05;;;;;;;32.98;25.51;99022.72;5020367;28;20037;-42
2023/08/28 10:58:22;;;;;;;6.50;3.55;;;;;;;32.72;25.83;99024.44;5027434;28;20072;-44
2023/08/28 11:01:15;;;;;;;3.72;3.13;;;;;;;32.70;25.66;99001.50;5010718;28;20436;-43
2023/08/28 11:03:57;;;;;;;5.18;3.25;;;;;;;33.59;24.64;99020.41;5030816;28;20037;-42
2023/08/28 11:06:44;;;;;;;6.97;3.20;;;;;;;34.29;23.95;99022.00;5048992;28;20046;-43
2023/08/28 11:09:29;;;;;;;6.45;3.60;;;;;;;35.37;23.14;99016.91;5009933;28;20053;-43
2023/08/28 11:11:59;;;;;;;6.97;3.53;;;;;;;37.31;21.51;99010.50;5025957;28;20049;-42
2023/08/28 11:14:31;;;;;;;4.45;3.83;;;;;;;38.63;20.44;99012.78;5028491;28;20037;-43
2023/08/28 11:17:15;;;;;;;6.93;3.58;;;;;;;39.86;19.10;99016.72;5028157;28;20037;-42
2023/08/28 11:19:56;;;;;;;4.22;3.83;;;;;;;40.61;18.63;99009.16;5022114;28;20131;-41
2023/08/28 11:22:36;;;;;;;8.27;3.58;;;;;;;40.80;18.33;99014.16;5021289;28;20041;-44
2023/08/28 11:25:10;;;;;;;8.23;3.47;;;;;;;39.05;20.00;99018.53;5006369;28;20468;-42
2023/08/28 11:27:49;;;;;;;3.80;3.40;;;;;;;37.00;21.37;98989.22;5027256;28;20090;-42